Time;durP1;ratioP1;P1;durP2;ratioP2;P2;SDS_P1;SDS_P2;PMS_P1;PMS_P2;Temp;Humidity;BMP_temperature;BMP_pressure;BME280_temperature;BME280_humidity;BME280_pressure;Samples;Min_cycle;Max_cycle;Signal;HPM_P1;HPM_P2
2022/09/19 00:01:10;;;;;;;3.25;0.73;;;;;;;13.17;56.89;98198.81;4485736;32;20092;-79
2022/09/19 00:03:35;;;;;;;1.77;0.50;;;;;;;13.68;57.05;98196.81;4485652;32;20167;-78
2022/09/19 00:06:01;;;;;;;2.08;0.70;;;;;;;13.36;56.47;98186.84;4485639;32;20069;-78
2022/09/19 00:08:26;;;;;;;0.90;0.50;;;;;;;13.61;56.67;98182.34;4486603;32;20085;-79
2022/09/19 00:10:51;;;;;;;1.48;0.50;;;;;;;13.33;57.93;98187.09;4487935;32;20149;-79
2022/09/19 00:13:17;;;;;;;1.58;0.70;;;;;;;13.08;58.97;98188.06;4487708;32;20148;-78
2022/09/19 00:15:48;;;;;;;2.65;0.75;;;;;;;13.71;57.71;98183.31;4487854;32;20092;-78
2022/09/19 00:18:14;;;;;;;3.87;0.68;;;;;;;13.85;57.75;98183.09;4473854;32;20475;-78
2022/09/19 00:20:43;;;;;;;1.45;0.60;;;;;;;14.05;56.84;98170.13;4488010;32;20123;-78
2022/09/19 00:26:04;;;;;;;2.72;0.60;;;;;;;12.76;58.70;98170.13;4487832;32;20181;-78
2022/09/19 00:28:29;;;;;;;1.23;0.60;;;;;;;13.15;57.92;98163.69;4487647;32;20141;-79
2022/09/19 00:30:56;;;;;;;0.65;0.45;;;;;;;13.26;58.16;98152.28;4473498;32;20145;-79
2022/09/19 00:33:23;;;;;;;1.25;0.50;;;;;;;13.15;57.89;98147.81;4473862;32;20097;-79
2022/09/19 00:35:54;;;;;;;2.20;0.60;;;;;;;13.03;58.05;98139.97;4487936;32;20113;-79
2022/09/19 00:38:23;;;;;;;0.98;0.50;;;;;;;13.41;56.87;98141.53;4474157;32;20111;-79
2022/09/19 00:40:49;;;;;;;1.80;0.70;;;;;;;13.21;57.48;98135.91;4487715;32;20133;-79
2022/09/19 00:43:17;;;;;;;0.95;0.50;;;;;;;13.67;56.30;98136.88;4473366;32;20076;-79
2022/09/19 00:45:43;;;;;;;1.95;0.50;;;;;;;13.71;55.76;98128.59;4473293;32;20458;-79
2022/09/19 00:48:08;;;;;;;0.85;0.50;;;;;;;13.21;56.15;98130.62;4487549;32;20080;-79
2022/09/19 00:50:34;;;;;;;1.70;0.55;;;;;;;13.49;55.70;98112.69;4473392;32;20153;-79
2022/09/19 00:53:07;;;;;;;1.85;0.70;;;;;;;13.55;54.68;98114.84;4473416;32;20115;-79
2022/09/19 00:55:33;;;;;;;3.15;0.62;;;;;;;13.14;55.28;98127.63;4473426;32;20152;-79
2022/09/19 00:58:07;;;;;;;3.03;0.65;;;;;;;13.55;54.92;98133.37;4487514;32;20114;-79
2022/09/19 01:00:34;;;;;;;1.58;0.55;;;;;;;13.31;54.93;98142.25;4473236;32;20092;-78
2022/09/19 01:03:01;;;;;;;1.23;0.60;;;;;;;13.67;54.19;98144.81;4487523;32;20080;-78
2022/09/19 01:05:42;;;;;;;2.22;0.60;;;;;;;13.48;54.96;98148.91;4487593;32;20431;-78
2022/09/19 01:08:38;;;;;;;0.90;0.43;;;;;;;14.01;54.12;98142.19;4473608;32;20127;-79
2022/09/19 01:11:40;;;;;;;1.08;0.50;;;;;;;14.09;54.38;98142.41;4487333;32;20129;-79
2022/09/19 01:14:14;;;;;;;1.17;0.50;;;;;;;13.95;54.16;98144.34;4487635;32;20089;-79
2022/09/19 01:16:50;;;;;;;1.17;0.37;;;;;;;13.75;55.02;98150.34;4487564;32;20060;-78
2022/09/19 01:19:24;;;;;;;1.95;0.57;;;;;;;13.73;54.93;98149.63;4472857;32;20104;-78
2022/09/19 01:22:35;;;;;;;2.30;0.68;;;;;;;13.76;55.25;98152.03;4487534;32;20077;-78
2022/09/19 01:25:26;;;;;;;1.75;0.50;;;;;;;13.64;55.08;98153.84;4407765;32;20122;-78
2022/09/19 01:28:14;;;;;;;1.80;0.60;;;;;;;13.75;54.99;98156.50;4347696;33;20104;-78
2022/09/19 01:30:47;;;;;;;2.05;0.50;;;;;;;13.81;54.11;98144.59;4347733;33;20183;-78
2022/09/19 01:33:17;;;;;;;1.48;0.57;;;;;;;14.07;53.69;98142.53;4348063;33;20517;-78
2022/09/19 01:35:47;;;;;;;1.00;0.50;;;;;;;14.07;54.03;98136.41;4347677;33;20087;-78
2022/09/19 01:38:21;;;;;;;2.15;0.50;;;;;;;14.33;53.37;98129.00;4347672;33;20485;-78
2022/09/19 01:40:48;;;;;;;0.40;0.40;;;;;;;14.31;53.49;98130.94;4347734;33;20126;-79
2022/09/19 01:43:16;;;;;;;2.87;0.50;;;;;;;14.14;53.66;98142.91;4347615;33;20103;-78
2022/09/19 01:45:41;;;;;;;1.85;0.57;;;;;;;14.11;53.74;98140.50;4347748;33;20444;-79
2022/09/19 01:48:10;;;;;;;2.40;0.40;;;;;;;14.29;52.89;98139.03;4347838;33;20134;-78
2022/09/19 01:50:45;;;;;;;2.22;0.60;;;;;;;14.51;52.35;98130.19;4347627;33;20130;-79
2022/09/19 01:53:36;;;;;;;1.25;0.47;;;;;;;14.58;52.45;98129.69;4347466;33;20119;-79
2022/09/19 01:56:13;;;;;;;2.40;0.60;;;;;;;14.40;52.48;98139.97;4347675;33;20147;-79
2022/09/19 01:58:48;;;;;;;1.90;0.47;;;;;;;14.57;51.63;98125.37;4347563;33;20099;-79
2022/09/19 02:01:37;;;;;;;0.90;0.50;;;;;;;14.51;51.57;98132.81;4370699;32;20118;-78
2022/09/19 02:04:18;;;;;;;3.08;0.62;;;;;;;14.70;51.49;98134.84;4406920;32;20833;-78
2022/09/19 02:06:48;;;;;;;0.62;0.40;;;;;;;14.54;51.63;98132.59;4487114;32;20111;-78
2022/09/19 02:09:40;;;;;;;2.30;0.65;;;;;;;14.53;51.79;98138.00;4473169;32;20077;-78
2022/09/19 02:12:07;;;;;;;0.98;0.50;;;;;;;14.39;52.10;98135.63;4486931;32;20076;-78
2022/09/19 02:14:34;;;;;;;1.55;0.45;;;;;;;14.50;52.09;98140.91;4486832;32;20110;-78
2022/09/19 02:17:06;;;;;;;1.52;0.50;;;;;;;14.49;51.82;98141.87;4472706;32;20096;-79
2022/09/19 02:19:48;;;;;;;2.05;0.50;;;;;;;14.54;51.56;98135.25;4487213;32;20344;-79
2022/09/19 02:22:48;;;;;;;1.58;0.70;;;;;;;14.63;51.30;98130.19;4487428;32;20085;-79
2022/09/19 02:25:17;;;;;;;1.75;0.50;;;;;;;14.45;51.56;98130.69;4466762;32;20447;-79
2022/09/19 02:27:49;;;;;;;1.98;0.70;;;;;;;14.15;51.72;98140.09;4472726;32;20100;-79
2022/09/19 02:30:16;;;;;;;2.53;0.50;;;;;;;14.08;51.70;98146.88;4472098;32;20095;-78
2022/09/19 02:32:48;;;;;;;3.47;0.60;;;;;;;14.15;51.83;98152.53;4472691;32;20454;-79
2022/09/19 02:35:24;;;;;;;2.83;0.60;;;;;;;14.32;51.36;98153.81;4473501;32;20167;-78
2022/09/19 02:37:54;;;;;;;1.92;0.55;;;;;;;14.06;52.25;98153.25;4472564;32;20103;-79
2022/09/19 02:40:27;;;;;;;1.65;0.47;;;;;;;14.42;51.17;98152.12;4472686;32;20132;-78
2022/09/19 02:43:02;;;;;;;1.50;0.50;;;;;;;14.45;50.34;98143.09;4486814;32;20486;-79
2022/09/19 02:45:36;;;;;;;0.75;0.37;;;;;;;14.11;51.75;98146.63;4472888;32;20096;-78
2022/09/19 02:48:11;;;;;;;3.20;0.52;;;;;;;14.09;50.40;98148.53;4472539;32;20080;-79
2022/09/19 02:50:41;;;;;;;1.60;0.50;;;;;;;13.64;51.89;98140.63;4472372;32;20379;-78
2022/09/19 02:53:11;;;;;;;3.15;0.55;;;;;;;13.40;52.41;98155.72;4486687;32;20666;-79
2022/09/19 02:55:46;;;;;;;1.40;0.60;;;;;;;14.19;50.97;98159.25;4472546;32;20116;-78
2022/09/19 02:58:14;;;;;;;2.30;0.77;;;;;;;14.36;51.49;98149.97;4472662;32;20438;-78
2022/09/19 03:00:40;;;;;;;3.60;0.90;;;;;;;13.91;53.24;98150.84;4472520;32;20132;-78
2022/09/19 03:05:55;;;;;;;2.05;0.60;;;;;;;13.71;53.17;98139.19;4486630;32;20138;-78
2022/09/19 03:08:24;;;;;;;3.37;0.70;;;;;;;13.71;54.03;98141.84;4472268;32;20092;-79
2022/09/19 03:10:51;;;;;;;2.83;0.60;;;;;;;13.84;53.87;98132.91;4472428;32;20096;-79
2022/09/19 03:13:24;;;;;;;2.10;0.50;;;;;;;13.41;54.44;98133.59;4472101;32;20097;-79
2022/09/19 03:15:56;;;;;;;2.45;0.70;;;;;;;13.71;54.36;98125.94;4486538;32;20081;-78
2022/09/19 03:18:24;;;;;;;1.17;0.52;;;;;;;13.65;54.24;98125.56;4472499;32;20151;-78
2022/09/19 03:20:53;;;;;;;1.67;0.80;;;;;;;13.66;54.42;98116.69;4486343;32;20076;-78
2022/09/19 03:23:23;;;;;;;2.78;0.70;;;;;;;13.27;55.48;98118.72;4472023;32;20101;-77
2022/09/19 03:25:48;;;;;;;1.90;0.50;;;;;;;13.40;55.42;98122.16;4472155;32;20101;-78
2022/09/19 03:28:19;;;;;;;2.83;0.62;;;;;;;13.54;55.18;98121.09;4486341;32;20144;-78
2022/09/19 03:30:45;;;;;;;2.15;0.70;;;;;;;13.90;54.69;98119.19;4486166;32;20457;-78
2022/09/19 03:33:11;;;;;;;1.02;0.50;;;;;;;14.09;54.01;98111.47;4486138;32;20475;-79
2022/09/19 03:35:37;;;;;;;1.15;0.45;;;;;;;13.86;54.41;98125.69;4472048;32;20127;-79
2022/09/19 03:38:02;;;;;;;2.55;0.77;;;;;;;13.90;53.69;98117.38;4471835;32;20085;-79
2022/09/19 03:40:28;;;;;;;3.17;0.73;;;;;;;13.97;54.91;98123.03;4485955;32;20133;-79
2022/09/19 03:42:53;;;;;;;1.30;0.50;;;;;;;13.82;54.46;98122.44;4487418;32;20467;-79
2022/09/19 03:45:19;;;;;;;1.12;0.55;;;;;;;14.13;54.28;98123.50;4488112;32;20081;-79
2022/09/19 03:47:44;;;;;;;2.83;0.75;;;;;;;14.32;54.81;98125.53;4473879;32;20084;-79
2022/09/19 03:50:09;;;;;;;3.17;0.62;;;;;;;14.42;55.00;98130.09;4487979;32;20138;-79
2022/09/19 03:52:35;;;;;;;3.65;0.85;;;;;;;14.50;55.31;98123.19;4487947;32;20115;-78
2022/09/19 03:55:00;;;;;;;2.60;0.70;;;;;;;14.57;55.29;98130.69;4488032;32;20073;-79
2022/09/19 03:57:26;;;;;;;3.08;0.82;;;;;;;14.57;55.57;98147.44;4487930;32;20080;-79
2022/09/19 03:59:51;;;;;;;2.97;0.90;;;;;;;14.61;55.99;98145.38;4473797;32;20072;-79
2022/09/19 04:02:17;;;;;;;3.70;0.80;;;;;;;14.06;57.42;98150.59;4487903;32;20134;-79
2022/09/19 04:04:42;;;;;;;2.50;0.80;;;;;;;14.25;57.03;98142.03;4487826;32;20150;-79
2022/09/19 04:07:07;;;;;;;1.15;0.60;;;;;;;14.38;56.24;98147.19;4487886;32;20068;-79
2022/09/19 04:09:34;;;;;;;2.60;0.75;;;;;;;14.35;56.38;98142.97;4487797;32;20068;-79
2022/09/19 04:12:02;;;;;;;2.47;0.60;;;;;;;13.86;57.55;98152.16;4487812;32;20165;-79
2022/09/19 04:14:28;;;;;;;2.67;0.70;;;;;;;14.06;57.02;98150.59;4488138;32;20092;-79
2022/09/19 04:16:55;;;;;;;3.20;0.80;;;;;;;14.11;56.25;98141.31;4488122;32;20363;-79
2022/09/19 04:19:20;;;;;;;1.47;0.50;;;;;;;14.16;56.34;98156.87;4488052;32;20084;-78
2022/09/19 04:21:46;;;;;;;1.50;0.50;;;;;;;14.35;55.93;98149.13;4488061;32;20365;-78
2022/09/19 04:24:13;;;;;;;4.30;1.15;;;;;;;14.38;55.48;98148.03;4488002;32;20080;-79
2022/09/19 04:26:41;;;;;;;1.63;0.60;;;;;;;14.51;55.28;98147.91;4473798;32;20076;-79
2022/09/19 04:29:07;;;;;;;2.95;0.70;;;;;;;14.55;55.38;98144.84;4488009;32;20160;-79
2022/09/19 04:31:39;;;;;;;2.28;0.73;;;;;;;14.22;55.64;98152.88;4488071;32;20100;-79
2022/09/19 04:34:16;;;;;;;3.22;0.50;;;;;;;14.24;55.71;98150.97;4488059;32;20099;-78
2022/09/19 04:36:41;;;;;;;1.67;0.80;;;;;;;14.24;55.49;98146.50;4474622;32;20080;-79
2022/09/19 04:39:07;;;;;;;2.08;0.80;;;;;;;14.45;54.69;98151.88;4473714;32;20099;-79
2022/09/19 04:41:34;;;;;;;2.30;0.70;;;;;;;14.26;54.75;98152.50;4487984;32;20084;-79
2022/09/19 04:44:00;;;;;;;2.08;0.60;;;;;;;14.53;54.41;98141.50;4487767;32;20119;-79
2022/09/19 04:46:26;;;;;;;2.25;0.70;;;;;;;14.48;54.31;98151.63;4487984;32;20110;-78
2022/09/19 04:48:52;;;;;;;2.12;0.68;;;;;;;14.67;54.03;98144.88;4487891;32;20077;-78
2022/09/19 04:51:18;;;;;;;2.10;0.60;;;;;;;14.64;54.07;98145.09;4487826;32;20076;-78
2022/09/19 04:53:44;;;;;;;1.95;0.60;;;;;;;14.70;53.82;98148.13;4487124;32;20093;-78
2022/09/19 04:56:11;;;;;;;2.45;0.70;;;;;;;14.74;53.44;98144.25;4473340;32;20084;-79
2022/09/19 04:58:39;;;;;;;2.03;0.60;;;;;;;14.73;53.58;98147.84;4487586;32;20089;-79
2022/09/19 05:01:04;;;;;;;;;;;;;;;14.66;53.41;98144.03;4487955;32;20106;-79
2022/09/19 05:03:30;;;;;;;1.15;0.60;;;;;;;14.64;53.33;98147.75;4473204;32;20035;-78
2022/09/19 05:05:56;;;;;;;2.28;0.60;;;;;;;14.50;53.32;98151.50;4487588;32;20123;-78
2022/09/19 05:08:27;;;;;;;2.22;0.70;;;;;;;14.53;53.52;98156.56;4473374;32;20088;-78
2022/09/19 05:11:00;;;;;;;3.50;0.80;;;;;;;14.49;53.94;98158.63;4473394;32;20105;-78
2022/09/19 05:13:29;;;;;;;4.28;0.80;;;;;;;14.07;54.64;98171.66;4455147;32;20490;-78
2022/09/19 05:15:55;;;;;;;1.23;0.55;;;;;;;13.84;54.90;98176.12;4454987;32;20475;-79
2022/09/19 05:18:22;;;;;;;1.55;0.77;;;;;;;14.05;55.01;98175.41;4456436;32;20112;-78
2022/09/19 05:20:52;;;;;;;2.77;0.70;;;;;;;14.22;55.46;98184.69;4456087;32;20085;-78
2022/09/19 05:23:18;;;;;;;2.25;0.68;;;;;;;13.89;55.85;98183.72;4456218;32;20111;-78
2022/09/19 05:25:44;;;;;;;3.92;0.82;;;;;;;14.01;56.17;98195.16;4456229;32;20425;-78
2022/09/19 05:28:10;;;;;;;4.05;0.65;;;;;;;13.62;58.05;98198.12;4456129;32;20080;-78
2022/09/19 05:30:38;;;;;;;2.90;1.00;;;;;;;13.23;59.97;98204.56;4454969;32;20429;-78
2022/09/19 05:33:04;;;;;;;5.28;1.10;;;;;;;13.34;59.84;98200.19;4455126;32;20105;-77
2022/09/19 05:35:31;;;;;;;4.97;0.98;;;;;;;13.10;61.21;98209.94;4454873;32;20081;-77
2022/09/19 05:37:57;;;;;;;2.95;1.00;;;;;;;13.29;61.08;98204.09;4456075;32;20118;-78
2022/09/19 05:40:25;;;;;;;3.17;0.88;;;;;;;13.64;60.83;98198.00;4456044;32;20119;-78
2022/09/19 05:42:53;;;;;;;2.53;0.90;;;;;;;13.44;61.06;98194.22;4462512;32;20443;-77
2022/09/19 05:45:20;;;;;;;2.33;0.82;;;;;;;13.87;59.79;98205.00;4459122;32;20107;-78
2022/09/19 05:47:46;;;;;;;2.30;0.80;;;;;;;13.67;59.75;98206.53;4463628;32;20578;-78
2022/09/19 05:50:14;;;;;;;2.87;0.80;;;;;;;13.74;59.96;98201.63;4461680;32;20132;-77
2022/09/19 05:55:26;;;;;;;4.05;0.95;;;;;;;13.88;60.36;98201.38;4465152;32;21593;-77
2022/09/19 05:57:56;;;;;;;2.78;0.70;;;;;;;13.41;61.08;98211.16;4476459;32;20455;-76
2022/09/19 06:00:23;;;;;;;1.95;0.50;;;;;;;13.55;60.18;98210.13;4462514;32;20112;-77
2022/09/19 06:03:03;;;;;;;2.10;0.70;;;;;;;13.60;60.35;98217.69;4463785;32;20096;-77
2022/09/19 06:05:33;;;;;;;8.02;1.00;;;;;;;13.25;61.63;98218.53;4463860;32;20088;-76
2022/09/19 06:07:59;;;;;;;2.30;0.57;;;;;;;13.40;61.06;98227.16;4461956;32;20136;-78
2022/09/19 06:10:26;;;;;;;3.20;0.80;;;;;;;13.24;61.72;98225.63;4462307;32;20093;-79
2022/09/19 06:12:55;;;;;;;2.75;0.80;;;;;;;13.23;61.48;98223.09;4460993;32;20159;-79
2022/09/19 06:15:20;;;;;;;4.37;0.80;;;;;;;13.17;62.06;98230.53;4467088;32;20101;-79
2022/09/19 06:17:49;;;;;;;2.03;0.70;;;;;;;13.05;62.69;98215.56;4462610;32;20416;-80
2022/09/19 06:20:16;;;;;;;2.78;0.70;;;;;;;13.67;61.05;98210.97;4462460;32;20115;-79
2022/09/19 06:22:41;;;;;;;1.08;0.70;;;;;;;13.43;60.83;98211.91;4459518;32;20097;-80
2022/09/19 06:25:08;;;;;;;1.87;0.70;;;;;;;13.63;60.85;98204.25;4468559;32;20477;-80
2022/09/19 06:27:35;;;;;;;3.50;0.80;;;;;;;13.43;61.92;98213.72;4462386;32;20094;-81
2022/09/19 06:30:02;;;;;;;1.48;0.65;;;;;;;13.67;61.60;98217.13;4470263;32;20164;-78
2022/09/19 06:32:27;;;;;;;2.47;0.70;;;;;;;13.60;60.90;98215.06;4458974;32;20153;-76
2022/09/19 06:34:52;;;;;;;3.12;0.95;;;;;;;12.58;64.05;98219.88;4463337;32;20072;-78
2022/09/19 06:37:18;;;;;;;2.80;0.70;;;;;;;12.50;64.80;98231.00;4462006;32;20076;-79
2022/09/19 06:39:44;;;;;;;1.95;0.62;;;;;;;12.20;65.66;98228.72;4465135;32;20108;-79
2022/09/19 06:42:09;;;;;;;2.83;0.70;;;;;;;12.38;65.32;98227.44;4462704;32;20097;-78
2022/09/19 06:44:34;;;;;;;3.70;0.80;;;;;;;12.89;63.38;98218.50;4463629;32;20390;-78
2022/09/19 06:47:00;;;;;;;3.10;0.60;;;;;;;13.12;63.46;98215.97;4465520;32;20155;-78
2022/09/19 06:49:27;;;;;;;1.58;0.60;;;;;;;12.65;64.99;98226.41;4456688;32;20148;-76
2022/09/19 06:51:54;;;;;;;1.00;0.60;;;;;;;12.47;65.31;98231.19;4463089;32;20140;-81
2022/09/19 06:54:21;;;;;;;2.97;0.85;;;;;;;13.00;63.84;98230.94;4469241;32;20151;-82
2022/09/19 06:56:47;;;;;;;3.47;0.80;;;;;;;12.87;64.71;98236.28;4469903;32;20436;-80
2022/09/19 06:59:13;;;;;;;3.12;0.95;;;;;;;12.70;65.60;98231.38;4463303;32;20149;-81
2022/09/19 07:01:38;;;;;;;2.58;0.60;;;;;;;13.28;64.50;98239.47;4470825;32;20153;-81
2022/09/19 07:04:04;;;;;;;3.15;0.88;;;;;;;12.54;64.76;98240.37;4470791;32;20081;-80
2022/09/19 07:06:37;;;;;;;1.30;0.60;;;;;;;12.91;64.87;98236.91;4469701;32;20352;-79
2022/09/19 07:09:03;;;;;;;1.92;0.68;;;;;;;12.94;65.16;98247.22;4470883;32;20093;-80
2022/09/19 07:11:29;;;;;;;2.08;0.77;;;;;;;13.13;64.41;98242.31;4477560;31;20104;-79
2022/09/19 07:13:54;;;;;;;2.00;0.52;;;;;;;13.08;64.92;98243.59;4502156;31;20372;-80
2022/09/19 07:16:20;;;;;;;2.35;0.80;;;;;;;12.83;65.33;98244.53;4500479;31;20433;-79
2022/09/19 07:18:45;;;;;;;1.37;0.50;;;;;;;13.33;64.43;98243.50;4507309;31;20115;-80
2022/09/19 07:21:11;;;;;;;1.37;0.52;;;;;;;13.33;63.65;98246.13;4507395;31;20080;-79
2022/09/19 07:23:37;;;;;;;2.53;0.50;;;;;;;13.45;63.37;98247.03;4492940;31;20337;-80
2022/09/19 07:26:03;;;;;;;1.87;0.60;;;;;;;13.30;62.67;98242.88;4507227;31;20113;-80
2022/09/19 07:28:30;;;;;;;0.55;0.43;;;;;;;13.87;62.08;98235.91;4479803;31;20096;-80
2022/09/19 07:30:58;;;;;;;3.62;0.70;;;;;;;14.25;62.19;98230.28;4493134;31;20096;-80
2022/09/19 07:33:24;;;;;;;3.65;0.70;;;;;;;13.91;62.57;98235.59;4507230;31;20446;-80
2022/09/19 07:35:51;;;;;;;1.65;0.60;;;;;;;14.54;60.54;98241.25;4479876;31;20136;-81
2022/09/19 07:38:18;;;;;;;2.17;0.60;;;;;;;14.63;61.11;98245.00;4507181;31;20144;-80
2022/09/19 07:40:44;;;;;;;0.95;0.60;;;;;;;14.81;59.27;98245.31;4492727;31;20156;-81
2022/09/19 07:43:13;;;;;;;0.95;0.50;;;;;;;14.58;59.75;98248.97;4507033;31;20489;-80
2022/09/19 07:45:50;;;;;;;2.50;0.80;;;;;;;14.87;58.33;98247.50;4507048;31;20135;-80
2022/09/19 07:48:17;;;;;;;3.08;0.70;;;;;;;14.54;60.58;98251.00;4479587;31;20104;-81
2022/09/19 07:50:43;;;;;;;2.47;0.73;;;;;;;14.68;58.90;98261.41;4506974;31;20100;-81
2022/09/19 07:53:17;;;;;;;2.55;0.70;;;;;;;14.55;58.77;98272.09;4506848;31;20461;-81
2022/09/19 07:55:47;;;;;;;2.70;0.55;;;;;;;14.76;58.72;98268.75;4492520;31;20109;-81
2022/09/19 07:58:13;;;;;;;2.22;0.80;;;;;;;15.23;57.17;98271.16;4492703;31;20088;-81
2022/09/19 08:00:39;;;;;;;2.03;0.90;;;;;;;15.27;57.56;98277.87;4490906;31;44636;-81
2022/09/19 08:03:08;;;;;;;1.27;0.50;;;;;;;15.44;56.54;98279.16;4506753;31;20085;-81
2022/09/19 08:05:37;;;;;;;7.57;0.82;;;;;;;14.55;57.96;98277.38;4492261;31;20100;-81
2022/09/19 08:08:06;;;;;;;4.05;0.90;;;;;;;14.92;57.83;98277.13;4492687;31;20096;-81
2022/09/19 08:10:32;;;;;;;9.55;1.48;;;;;;;14.58;56.63;98271.03;4479250;31;20466;-81
2022/09/19 08:13:02;;;;;;;2.20;0.68;;;;;;;14.97;56.99;98279.44;4506564;31;20110;-81
2022/09/19 08:15:28;;;;;;;5.18;0.80;;;;;;;14.53;57.91;98267.88;4492342;31;20110;-81
2022/09/19 08:17:57;;;;;;;5.75;0.82;;;;;;;14.04;60.87;98269.91;4506566;31;20107;-78
2022/09/19 08:20:27;;;;;;;2.70;0.62;;;;;;;14.60;57.58;98268.25;4506494;31;20079;-81
2022/09/19 08:23:07;;;;;;;1.65;0.57;;;;;;;14.22;57.73;98275.59;4492126;31;20096;-81
2022/09/19 08:25:34;;;;;;;1.70;0.52;;;;;;;13.80;60.10;98283.22;4506394;31;20160;-80
2022/09/19 08:28:03;;;;;;;1.87;0.68;;;;;;;13.37;58.67;98278.50;4490692;31;20163;-79
2022/09/19 08:30:29;;;;;;;1.42;0.62;;;;;;;13.65;59.53;98285.22;4503432;31;20092;-80
2022/09/19 08:32:56;;;;;;;1.80;0.70;;;;;;;13.49;59.11;98282.88;4503542;31;20098;-82
2022/09/19 08:35:22;;;;;;;5.30;0.80;;;;;;;13.06;59.58;98291.31;4503521;31;20155;-81
2022/09/19 08:37:53;;;;;;;3.70;0.80;;;;;;;12.98;60.96;98296.31;4503444;31;20247;-81
2022/09/19 08:40:25;;;;;;;1.80;0.60;;;;;;;13.17;58.91;98296.66;4489222;31;20099;-79
2022/09/19 08:42:59;;;;;;;1.65;0.50;;;;;;;13.41;56.92;98300.28;4503651;31;20126;-79
2022/09/19 08:45:40;;;;;;;3.65;0.90;;;;;;;13.69;57.24;98291.94;4503435;31;20084;-82
2022/09/19 08:48:11;;;;;;;3.15;0.47;;;;;;;14.03;56.21;98312.41;4503518;31;20161;-83
2022/09/19 08:50:39;;;;;;;1.27;0.57;;;;;;;13.67;54.21;98300.97;4489123;31;20126;-83
2022/09/19 08:53:06;;;;;;;1.23;0.70;;;;;;;13.17;56.24;98317.81;4489189;31;20545;-83
2022/09/19 08:55:34;;;;;;;3.28;0.85;;;;;;;13.83;54.98;98305.94;4488826;31;20092;-83
2022/09/19 08:58:11;;;;;;;2.62;0.50;;;;;;;13.43;55.56;98320.38;4488670;31;20115;-82
2022/09/19 09:00:39;;;;;;;3.53;0.70;;;;;;;13.72;54.64;98326.16;4489093;31;20377;-83
2022/09/19 09:03:07;;;;;;;3.53;0.70;;;;;;;14.32;53.08;98321.59;4489156;31;20111;-83
2022/09/19 09:05:42;;;;;;;3.35;0.60;;;;;;;14.76;52.12;98324.41;4489002;31;20340;-82
2022/09/19 09:08:30;;;;;;;2.08;0.50;;;;;;;15.00;50.85;98328.72;4503309;31;20495;-82
2022/09/19 09:11:13;;;;;;;2.72;1.02;;;;;;;14.83;50.43;98320.28;4503337;31;20118;-83
2022/09/19 09:14:20;;;;;;;0.98;0.40;;;;;;;14.99;50.20;98322.59;4503329;31;20888;-82
2022/09/19 09:16:53;;;;;;;3.33;0.50;;;;;;;14.87;50.30;98320.91;4435698;32;20105;-80
2022/09/19 09:19:52;;;;;;;1.80;0.45;;;;;;;15.14;49.30;98328.44;4428437;32;20128;-80
2022/09/19 09:22:27;;;;;;;2.00;0.40;;;;;;;15.07;50.11;98322.81;4420297;32;20101;-79
2022/09/19 09:25:14;;;;;;;2.70;0.60;;;;;;;14.80;49.22;98335.62;4407408;32;20438;-81
2022/09/19 09:27:56;;;;;;;4.07;0.40;;;;;;;14.71;49.84;98321.28;4406813;32;20157;-81
2022/09/19 09:30:22;;;;;;;2.20;0.40;;;;;;;15.19;49.32;98320.97;4420516;32;20133;-80
2022/09/19 09:32:51;;;;;;;0.95;0.30;;;;;;;15.10;48.41;98324.34;4420116;32;20440;-81
2022/09/19 09:35:30;;;;;;;2.75;0.40;;;;;;;14.84;48.64;98326.47;4421595;32;20108;-80
2022/09/19 09:38:32;;;;;;;1.75;0.50;;;;;;;14.84;48.44;98337.91;4408643;32;20446;-80
2022/09/19 09:44:13;;;;;;;4.50;0.60;;;;;;;14.93;48.94;98339.84;4419960;32;20213;-81
2022/09/19 09:46:53;;;;;;;1.87;0.55;;;;;;;15.13;48.20;98340.03;4419499;32;20101;-80
2022/09/19 09:49:26;;;;;;;2.80;0.50;;;;;;;15.39;47.39;98340.56;4419974;32;20419;-80
2022/09/19 09:52:17;;;;;;;4.40;0.50;;;;;;;15.20;47.00;98338.59;4412143;32;20116;-81
2022/09/19 09:58:06;;;;;;;;;;;;;;;15.52;46.77;98332.44;4473505;32;20155;-81
2022/09/19 10:04:06;;;;;;;1.20;0.30;;;;;;;14.87;47.24;98328.84;4472046;32;20501;-80
2022/09/19 10:06:38;;;;;;;1.08;0.40;;;;;;;15.15;45.96;98322.19;4405948;32;20106;-80
2022/09/19 10:09:03;;;;;;;2.83;0.32;;;;;;;15.04;46.16;98344.25;4402780;32;20128;-82
2022/09/19 10:11:30;;;;;;;0.80;0.30;;;;;;;14.68;47.49;98364.78;4404639;32;20109;-81
2022/09/19 10:14:01;;;;;;;1.00;0.35;;;;;;;14.88;49.80;98365.03;4406200;32;20129;-80
2022/09/19 10:16:30;;;;;;;2.17;0.40;;;;;;;14.98;51.37;98362.50;4405178;32;20154;-81
2022/09/19 10:19:04;;;;;;;1.05;0.35;;;;;;;15.22;52.01;98362.31;4393590;32;20090;-80
2022/09/19 10:21:30;;;;;;;1.30;0.43;;;;;;;15.16;53.64;98361.00;4391877;32;20144;-81
2022/09/19 10:23:56;;;;;;;0.32;0.30;;;;;;;14.91;54.53;98351.50;4405413;32;20144;-80
2022/09/19 10:26:27;;;;;;;1.73;0.30;;;;;;;14.94;54.97;98353.94;4392706;32;20171;-81
2022/09/19 10:28:59;;;;;;;3.17;0.62;;;;;;;14.81;54.72;98353.22;4392578;32;20563;-81
2022/09/19 10:31:38;;;;;;;3.20;0.80;;;;;;;15.28;54.22;98354.72;4404932;32;20145;-81
2022/09/19 10:34:05;;;;;;;2.00;0.50;;;;;;;15.22;53.34;98338.44;4402726;32;20101;-80
2022/09/19 10:36:34;;;;;;;3.40;0.40;;;;;;;15.00;53.59;98344.63;4405164;32;20118;-79
2022/09/19 10:39:09;;;;;;;5.32;0.80;;;;;;;14.38;54.57;98345.94;4392295;32;20105;-79
2022/09/19 10:41:35;;;;;;;3.97;0.52;;;;;;;15.11;52.36;98349.94;4391115;32;20094;-79
2022/09/19 10:44:02;;;;;;;1.27;0.50;;;;;;;14.97;53.46;98350.19;4479291;32;20413;-80
2022/09/19 10:46:36;;;;;;;2.92;0.50;;;;;;;14.82;53.17;98336.34;4484595;32;20145;-79
2022/09/19 10:49:18;;;;;;;3.47;0.70;;;;;;;15.27;53.15;98344.22;4483279;32;20108;-79
2022/09/19 10:51:47;;;;;;;5.60;0.60;;;;;;;14.98;53.82;98338.63;4483458;32;20083;-79
2022/09/19 10:54:25;;;;;;;2.83;0.60;;;;;;;15.13;52.91;98337.38;4469364;32;20126;-80
2022/09/19 10:56:51;;;;;;;;;;;;;;;15.13;51.60;98340.03;4485256;32;20116;-81
2022/09/19 10:59:28;;;;;;;1.92;0.40;;;;;;;15.29;49.97;98334.34;4469167;32;20247;-81
2022/09/19 11:02:08;;;;;;;1.37;0.50;;;;;;;15.64;50.59;98333.25;4482596;32;20443;-82
2022/09/19 11:04:35;;;;;;;0.82;0.32;;;;;;;14.90;51.41;98348.03;4484953;32;20091;-79
2022/09/19 11:07:05;;;;;;;3.70;0.50;;;;;;;14.14;53.73;98360.94;4484444;32;20167;-80
2022/09/19 11:09:36;;;;;;;2.97;0.52;;;;;;;14.07;54.14;98364.19;4469757;32;20410;-80
2022/09/19 11:12:16;;;;;;;1.33;0.50;;;;;;;14.33;54.73;98375.41;4469883;32;20089;-80
2022/09/19 11:14:48;;;;;;;2.28;0.60;;;;;;;13.74;57.91;98374.53;4469618;32;20104;-79
2022/09/19 11:17:37;;;;;;;3.62;0.70;;;;;;;13.83;58.65;98385.37;4470095;32;20150;-79
2022/09/19 11:20:21;;;;;;;4.68;0.40;;;;;;;13.56;60.18;98382.03;4469285;32;20103;-80
2022/09/19 11:22:59;;;;;;;2.25;0.50;;;;;;;13.19;60.08;98407.59;4468973;32;20387;-81
2022/09/19 11:25:30;;;;;;;4.20;0.60;;;;;;;13.37;60.58;98398.41;4484442;32;20097;-79
2022/09/19 11:28:32;;;;;;;3.87;0.55;;;;;;;13.55;59.30;98392.72;4483985;32;20109;-77
2022/09/19 11:31:21;;;;;;;4.25;0.68;;;;;;;13.20;60.25;98396.09;4484476;32;20114;-81
2022/09/19 11:34:23;;;;;;;5.47;0.75;;;;;;;13.92;58.53;98390.00;4483580;32;20225;-81
2022/09/19 11:37:17;;;;;;;5.97;0.73;;;;;;;13.48;59.39;98395.00;4483297;32;20169;-80
2022/09/19 11:40:01;;;;;;;3.85;0.70;;;;;;;13.42;59.56;98381.34;4484688;31;20088;-79
2022/09/19 11:42:37;;;;;;;2.42;0.60;;;;;;;12.95;61.84;98378.47;4484635;32;20104;-78
2022/09/19 11:45:12;;;;;;;1.37;0.60;;;;;;;12.90;62.37;98386.75;4467873;32;20111;-80
2022/09/19 11:48:10;;;;;;;2.70;0.90;;;;;;;13.55;61.34;98382.97;4469996;32;20402;-80
2022/09/19 11:50:59;;;;;;;1.60;0.73;;;;;;;13.84;60.23;98373.84;4469364;32;20180;-79
2022/09/19 11:54:04;;;;;;;2.22;0.60;;;;;;;13.92;60.20;98374.94;4482753;32;20092;-80
2022/09/19 11:56:39;;;;;;;1.00;0.60;;;;;;;13.34;61.29;98389.84;4418006;32;20105;-82
2022/09/19 11:59:30;;;;;;;2.00;0.40;;;;;;;13.27;59.98;98383.25;4419303;32;20171;-80
2022/09/19 12:02:01;;;;;;;1.75;0.50;;;;;;;13.49;57.75;98387.88;4406816;32;20179;-81
2022/09/19 12:04:33;;;;;;;1.20;0.30;;;;;;;13.85;57.44;98405.50;4406451;32;20097;-81
2022/09/19 12:07:24;;;;;;;0.52;0.30;;;;;;;13.52;56.07;98414.09;4420072;32;20149;-80
2022/09/19 12:09:56;;;;;;;0.75;0.30;;;;;;;13.52;55.31;98403.53;4421158;32;20106;-80
2022/09/19 12:12:24;;;;;;;0.47;0.20;;;;;;;13.47;55.12;98405.69;4407497;32;20176;-80